createdAt,value
2016-04-21T20:01:35.942Z,150
2016-04-21T20:01:48.692Z,157
2016-04-21T20:02:01.676Z,157
2016-04-21T20:02:14.664Z,150
2016-04-21T20:02:27.460Z,150
2016-04-21T20:02:40.210Z,150
2016-04-21T20:02:53.257Z,133
2016-04-21T20:03:06.101Z,133
2016-04-21T20:03:18.932Z,133
2016-04-21T20:03:31.901Z,133
2016-04-21T20:03:44.854Z,133
2016-04-21T20:03:57.604Z,150
2016-04-21T20:04:10.576Z,157
2016-04-21T20:04:23.576Z,157
2016-04-21T20:04:36.310Z,157
2016-04-21T20:04:49.248Z,157
2016-04-21T20:05:02.123Z,150
2016-04-21T20:05:15.140Z,157
2016-04-21T20:05:27.937Z,133
2016-04-21T20:05:40.718Z,157
2016-04-21T20:05:53.734Z,157
2016-04-21T20:06:06.547Z,157
2016-04-21T20:06:19.330Z,157
2016-04-21T20:06:32.330Z,157
2016-04-21T20:06:45.267Z,150
2016-04-21T20:06:58.033Z,150
2016-04-21T20:07:11.037Z,165
2016-04-21T20:07:24.021Z,150
2016-04-21T20:07:36.896Z,150
2016-04-21T20:07:49.724Z,133
2016-04-21T20:08:02.537Z,150
2016-04-21T20:08:15.492Z,150
2016-04-21T20:08:28.414Z,150
2016-04-21T20:08:41.164Z,150
2016-04-21T20:08:54.211Z,150
2016-04-21T20:09:07.211Z,150
2016-04-21T20:09:19.948Z,150
2016-04-21T20:09:32.886Z,150
2016-04-21T20:09:45.839Z,150
2016-04-21T20:09:58.636Z,150
2016-04-21T20:10:11.482Z,150
2016-04-21T20:10:24.420Z,150
2016-04-21T20:10:37.264Z,150
2016-04-21T20:10:50.264Z,150
2016-04-21T20:11:03.076Z,150
2016-04-21T20:11:15.860Z,150
2016-04-21T20:11:28.860Z,150
2016-04-21T20:11:41.720Z,150
2016-04-21T20:11:54.579Z,150
2016-04-21T20:12:07.579Z,150
2016-04-21T20:12:20.549Z,150
2016-04-21T20:12:33.299Z,150
2016-04-21T20:12:46.299Z,150
2016-04-21T20:12:59.283Z,150
2016-04-21T20:13:11.975Z,150
2016-04-21T20:13:26.428Z,150
2016-04-21T20:13:40.662Z,150
2016-04-21T20:13:56.928Z,150
2016-04-21T20:14:09.930Z,150
2016-04-21T20:14:22.867Z,150
2016-04-21T20:14:35.617Z,150
2016-04-21T20:14:48.571Z,150
2016-04-21T20:15:01.524Z,150
2016-04-21T20:15:14.339Z,150
2016-04-21T20:15:27.199Z,150
2016-04-21T20:15:40.245Z,150
2016-04-21T20:15:54.308Z,150
2016-04-21T20:16:07.214Z,150
2016-04-21T20:16:20.061Z,150
2016-04-21T20:16:32.842Z,150
2016-04-21T20:16:45.873Z,150
2016-04-21T20:16:58.795Z,150
2016-04-21T20:17:11.641Z,150
2016-04-21T20:17:24.625Z,150
2016-04-21T20:17:37.579Z,150
2016-04-21T20:17:50.329Z,150
2016-04-21T20:18:03.297Z,150
2016-04-21T20:18:16.285Z,150
2016-04-21T20:18:29.035Z,150
2016-04-21T20:18:42.628Z,150
2016-04-21T20:18:55.425Z,150
2016-04-21T20:19:08.410Z,150
2016-04-21T20:32:13.713Z,156
2016-04-21T20:32:26.495Z,156
2016-04-21T20:32:39.260Z,156
2016-04-21T20:32:52.260Z,156
2016-04-21T20:33:05.088Z,156
2016-04-21T20:33:17.888Z,156
2016-04-21T20:33:30.857Z,156
2016-04-21T20:33:43.794Z,156
2016-04-21T20:33:56.701Z,156
2016-04-21T20:34:09.466Z,156
2016-04-21T20:34:22.437Z,156
2016-04-21T20:34:35.390Z,156
2016-04-21T20:34:48.171Z,156
2016-04-21T20:35:01.000Z,156
2016-04-21T20:35:14.017Z,156
2016-04-21T20:35:26.767Z,156
2016-04-21T20:35:39.548Z,156
2016-04-21T20:35:52.595Z,156
2016-04-21T20:36:05.423Z,156
2016-04-21T20:36:18.239Z,156
2016-04-21T20:36:31.208Z,160
2016-04-21T20:36:43.989Z,160
2016-04-21T20:36:56.958Z,160
2016-04-21T20:37:09.895Z,160
2016-04-21T20:37:22.648Z,160
2016-04-21T20:37:35.617Z,160
2016-04-21T20:37:48.679Z,160
2016-04-21T20:38:01.429Z,160
2016-04-21T20:38:14.353Z,160
2016-04-21T20:38:27.322Z,160
2016-04-21T20:38:40.150Z,160
2016-04-21T20:38:52.978Z,160
2016-04-21T20:39:05.978Z,160
2016-04-21T20:39:18.825Z,160
2016-04-21T20:39:31.638Z,160
2016-04-21T20:39:44.419Z,160
2016-04-21T20:39:57.419Z,160
2016-04-21T20:40:10.344Z,160
2016-04-21T20:40:23.109Z,160
2016-04-21T20:40:36.094Z,160
2016-04-21T20:40:49.047Z,160
2016-04-21T20:41:02.125Z,160
2016-04-21T20:41:15.081Z,160
2016-04-21T20:41:28.050Z,160
2016-04-21T20:41:40.862Z,160
2016-04-21T20:41:53.737Z,160
2016-04-21T20:42:06.565Z,160
2016-04-21T20:42:19.567Z,160
2016-04-21T20:42:32.552Z,160
2016-04-21T20:42:45.302Z,160
2016-04-21T20:42:58.271Z,160
2016-04-21T20:43:11.258Z,160
2016-04-21T20:43:24.070Z,160
2016-04-21T20:43:36.899Z,160
2016-04-21T20:43:49.945Z,160
2016-04-21T20:44:02.727Z,160
2016-04-21T20:44:15.527Z,160
2016-04-21T20:44:28.542Z,160
2016-04-21T20:44:41.386Z,160
2016-04-21T20:44:54.308Z,160
2016-04-21T20:45:07.152Z,160
2016-04-21T20:45:19.951Z,160
2016-04-21T20:45:32.983Z,160
2016-04-21T20:45:45.920Z,160
2016-04-21T20:46:00.123Z,160
2016-04-21T20:46:13.095Z,160
2016-04-21T20:46:26.079Z,160
2016-04-21T20:46:38.845Z,160
2016-04-21T20:46:51.783Z,160
2016-04-21T20:47:55.097Z,160
2016-04-21T20:48:07.863Z,160
2016-04-21T20:48:20.802Z,160
2016-04-21T20:48:33.708Z,160
2016-04-21T20:48:46.458Z,160
2016-04-21T20:48:59.443Z,160
2016-04-21T20:49:12.430Z,160
2016-04-21T20:49:25.118Z,160
2016-04-21T20:49:38.055Z,160
2016-04-21T20:49:51.915Z,160
2016-04-21T20:50:04.711Z,160
2016-04-21T21:03:07.950Z,192
2016-04-21T21:03:24.734Z,176
2016-04-21T21:03:40.468Z,176
2016-04-21T21:03:55.843Z,176
2016-04-21T21:04:11.877Z,192
2016-04-21T21:04:25.534Z,176
2016-04-21T21:04:38.456Z,176
2016-04-21T21:04:51.471Z,176
2016-04-21T21:05:04.268Z,176
2016-04-21T21:05:17.098Z,176
2016-04-21T21:05:30.098Z,192
2016-04-21T21:05:42.958Z,192
2016-04-21T21:05:55.754Z,176
2016-04-21T21:06:08.786Z,192
2016-04-21T21:06:21.679Z,176
2016-04-21T21:06:34.742Z,192
2016-04-21T21:06:47.570Z,192
2016-04-21T21:07:00.414Z,192
2016-04-21T21:07:13.479Z,176
2016-04-21T21:07:27.729Z,176
2016-04-21T21:07:44.073Z,176
2016-04-21T21:08:02.510Z,176
2016-04-21T21:08:19.669Z,176
2016-04-21T21:08:32.716Z,176
2016-04-21T21:08:46.387Z,176
2016-04-21T21:08:59.731Z,176
2016-04-21T21:09:12.734Z,176
2016-04-21T21:09:25.734Z,176
2016-04-21T21:09:41.078Z,176
2016-04-21T21:09:55.047Z,176
2016-04-21T21:10:10.031Z,176
2016-04-21T21:10:23.362Z,176
2016-04-21T21:10:36.503Z,176
2016-04-21T21:10:49.284Z,176
2016-04-21T21:11:02.081Z,176
2016-04-21T21:11:15.428Z,176
2016-04-21T21:11:28.240Z,176
2016-04-21T21:11:41.037Z,176
2016-04-21T21:11:54.146Z,176
2016-04-21T21:12:07.037Z,176
2016-04-21T21:12:20.164Z,176
2016-04-21T21:12:35.789Z,75
2016-04-21T21:12:48.664Z,75
2016-04-21T21:13:01.680Z,75
2016-04-21T21:13:14.495Z,75
2016-04-21T21:13:27.448Z,75
2016-04-21T21:13:40.433Z,75
2016-04-21T21:13:53.401Z,53
2016-04-21T21:14:06.308Z,53
2016-04-21T21:14:19.967Z,75
2016-04-21T21:14:37.217Z,176
2016-04-21T21:14:52.108Z,176
2016-04-21T21:15:05.404Z,176
2016-04-21T21:15:18.250Z,176
2016-04-21T21:15:31.188Z,176
2016-04-21T21:15:44.203Z,176
2016-04-21T21:15:58.313Z,176
2016-04-21T21:16:11.141Z,176
2016-04-21T21:16:24.222Z,176
2016-04-21T21:16:37.081Z,176
2016-04-21T21:16:49.894Z,176
2016-04-21T21:17:02.925Z,176
2016-04-21T21:17:15.819Z,176
2016-04-21T21:17:28.662Z,176
2016-04-21T21:17:41.694Z,176
2016-04-21T21:17:54.647Z,176
2016-04-21T21:18:07.600Z,176
2016-04-21T21:18:20.415Z,176
2016-04-21T21:18:33.259Z,176
2016-04-21T21:18:46.322Z,176
2016-04-21T21:18:59.244Z,176
2016-04-21T21:19:14.292Z,176
2016-04-21T21:19:27.386Z,176
2016-04-21T21:19:40.621Z,176
2016-04-21T21:19:53.417Z,176
2016-04-21T21:20:06.386Z,176
2016-04-21T21:20:19.374Z,176
2016-04-21T21:20:32.139Z,176
2016-04-21T21:20:45.045Z,176
2016-04-21T21:20:57.920Z,192
2016-04-21T21:21:10.952Z,176
2016-04-21T21:34:21.818Z,176
2016-04-21T21:34:36.802Z,176
2016-04-21T21:34:50.880Z,176
2016-04-21T21:35:04.021Z,176
2016-04-21T21:35:16.851Z,176
2016-04-21T21:35:29.695Z,176
2016-04-21T21:35:42.726Z,176
2016-04-21T21:35:55.507Z,176
2016-04-21T21:36:08.289Z,176
2016-04-21T21:36:21.276Z,176
2016-04-21T21:36:34.276Z,176
2016-04-21T21:36:47.042Z,176
2016-04-21T21:36:59.995Z,176
2016-04-21T21:37:12.982Z,176
2016-04-21T21:37:25.779Z,176
2016-04-21T21:37:38.966Z,176
2016-04-21T21:37:52.154Z,176
2016-04-21T21:38:05.076Z,176
2016-04-21T21:38:19.406Z,176
2016-04-21T21:38:33.265Z,176
2016-04-21T21:38:47.140Z,176
2016-04-21T21:39:01.078Z,176
2016-04-21T21:39:14.190Z,176
2016-04-21T21:39:27.596Z,176
2016-04-21T21:39:41.503Z,176
2016-04-21T21:39:54.815Z,176
2016-04-21T21:40:08.081Z,176
2016-04-21T21:40:22.084Z,176
2016-04-21T21:40:36.303Z,176
2016-04-21T21:40:49.365Z,176
2016-04-21T21:41:02.928Z,176
2016-04-21T21:41:16.148Z,176
2016-04-21T21:41:28.930Z,176
2016-04-21T21:41:41.914Z,176
2016-04-21T21:41:54.914Z,176
2016-04-21T21:42:07.945Z,176
2016-04-21T21:42:20.729Z,176
2016-04-21T21:42:33.761Z,176
2016-04-21T21:42:47.323Z,176
2016-04-21T21:43:00.120Z,176
2016-04-21T21:43:12.966Z,176
2016-04-21T21:43:25.981Z,176
2016-04-21T21:43:38.825Z,176
2016-04-21T21:43:51.638Z,176
2016-04-21T21:44:04.622Z,176
2016-04-21T21:44:17.563Z,176
2016-04-21T21:44:30.391Z,176
2016-04-21T21:44:43.344Z,176
2016-04-21T21:44:56.109Z,176
2016-04-21T21:45:09.063Z,176
2016-04-21T21:45:22.066Z,176
2016-04-21T21:45:34.816Z,176
2016-04-21T21:45:47.862Z,176
2016-04-21T21:46:02.331Z,176
2016-04-21T21:46:15.147Z,176
2016-04-21T21:46:28.006Z,176
2016-04-21T21:46:41.022Z,176
2016-04-21T21:46:53.865Z,176
2016-04-21T21:47:06.647Z,176
2016-04-21T21:47:19.586Z,176
2016-04-21T21:47:32.555Z,176
2016-04-21T21:47:45.492Z,176
2016-04-21T21:47:58.258Z,176
2016-04-21T21:48:12.649Z,176
2016-04-21T21:48:26.370Z,176
2016-04-21T21:48:39.730Z,176
2016-04-21T21:48:53.511Z,176
2016-04-21T21:49:06.480Z,176
2016-04-21T21:49:19.858Z,176
2016-04-21T21:49:32.764Z,176
2016-04-21T21:49:47.014Z,176
2016-04-21T21:50:00.139Z,176
2016-04-21T21:50:14.580Z,176
2016-04-21T21:50:27.751Z,176
2016-04-21T21:50:41.470Z,176
2016-04-21T21:50:54.970Z,176
2016-04-21T21:51:08.236Z,176
2016-04-21T21:51:21.332Z,176
2016-04-21T21:51:34.878Z,176
2016-04-21T21:51:47.847Z,176
2016-04-21T22:04:55.117Z,176
2016-04-21T22:05:08.132Z,176
2016-04-21T22:05:21.463Z,176
2016-04-21T22:05:34.745Z,176
2016-04-21T22:05:47.807Z,176
2016-04-21T22:06:01.588Z,176
2016-04-21T22:06:14.388Z,176
2016-04-21T22:06:27.404Z,176
2016-04-21T22:06:40.216Z,176
2016-04-21T22:06:52.998Z,176
2016-04-21T22:07:08.310Z,176
2016-04-21T22:07:23.156Z,176
2016-04-21T22:07:36.906Z,176
2016-04-21T22:07:50.078Z,176
2016-04-21T22:08:03.015Z,176
2016-04-21T22:08:16.659Z,176
2016-04-21T22:08:29.549Z,176
2016-04-21T22:08:42.768Z,176
2016-04-21T22:08:57.706Z,176
2016-04-21T22:09:12.112Z,176
2016-04-21T22:09:27.334Z,176
2016-04-21T22:09:40.865Z,176
2016-04-21T22:09:54.490Z,176
2016-04-21T22:10:07.881Z,176
2016-04-21T22:10:20.915Z,176
2016-04-21T22:10:33.743Z,176
2016-04-21T22:10:46.587Z,176
2016-04-21T22:10:59.555Z,176
2016-04-21T22:11:12.524Z,176
2016-04-21T22:11:25.901Z,192
2016-04-21T22:11:38.729Z,176
2016-04-21T22:11:52.198Z,176
2016-04-21T22:12:06.182Z,176
2016-04-21T22:12:18.935Z,176
2016-04-21T22:12:31.967Z,176
2016-04-21T22:12:44.795Z,176
2016-04-21T22:12:57.576Z,176
2016-04-21T22:13:10.529Z,176
2016-04-21T22:13:23.657Z,176
2016-04-21T22:13:36.407Z,176
2016-04-21T22:13:49.345Z,176
2016-04-21T22:14:02.298Z,176
2016-04-21T22:14:15.253Z,176
2016-04-21T22:14:28.128Z,176
2016-04-21T22:14:40.972Z,176
2016-04-21T22:14:56.784Z,176
2016-04-21T22:15:09.534Z,176
2016-04-21T22:15:22.364Z,176
2016-04-21T22:15:35.411Z,176
2016-04-21T22:15:48.583Z,176
2016-04-21T22:16:02.130Z,176
2016-04-21T22:16:15.336Z,176
2016-04-21T22:16:28.258Z,176
2016-04-21T22:16:41.680Z,176
2016-04-21T22:16:54.508Z,176
2016-04-21T22:17:07.461Z,176
2016-04-21T22:17:20.542Z,176
2016-04-21T22:17:33.402Z,176
2016-04-21T22:17:46.245Z,176
2016-04-21T22:17:59.214Z,176
2016-04-21T22:18:12.261Z,176
2016-04-21T22:18:25.092Z,176
2016-04-21T22:18:38.264Z,176
2016-04-21T22:18:51.717Z,176
2016-04-21T22:19:04.483Z,176
2016-04-21T22:19:17.689Z,176
2016-04-21T22:19:30.533Z,176
2016-04-21T22:19:43.486Z,176
2016-04-21T22:19:56.486Z,176
2016-04-21T22:20:09.283Z,176
2016-04-21T22:20:22.128Z,176
2016-04-21T22:20:35.425Z,176
2016-04-21T22:20:48.206Z,176
2016-04-21T22:21:00.988Z,176
2016-04-21T22:21:13.990Z,176
2016-04-21T22:21:26.849Z,176
2016-04-21T22:21:39.630Z,176
2016-04-21T22:21:52.755Z,176
2016-04-21T22:22:06.380Z,176
2016-04-21T22:22:19.336Z,176
2016-04-21T22:22:32.102Z,176
2016-04-21T22:35:35.059Z,176
2016-04-21T22:35:48.918Z,176
2016-04-21T22:36:01.903Z,176
2016-04-21T22:36:14.749Z,176
2016-04-21T22:36:28.374Z,176
2016-04-21T22:36:41.468Z,176
2016-04-21T22:36:55.390Z,176
2016-04-21T22:37:08.218Z,176
2016-04-21T22:37:21.159Z,176
2016-04-21T22:37:35.252Z,176
2016-04-21T22:37:48.299Z,176
2016-04-21T22:38:01.018Z,176
2016-04-21T22:38:14.034Z,192
2016-04-21T22:38:27.037Z,192
2016-04-21T22:38:39.802Z,176
2016-04-21T22:38:52.693Z,176
2016-04-21T22:39:05.662Z,176
2016-04-21T22:39:18.446Z,176
2016-04-21T22:39:34.883Z,176
2016-04-21T22:39:47.930Z,176
2016-04-21T22:40:00.743Z,176
2016-04-21T22:40:13.727Z,176
2016-04-21T22:40:26.464Z,176
2016-04-21T22:40:39.432Z,176
2016-04-21T22:40:52.401Z,176
2016-04-21T22:41:05.198Z,176
2016-04-21T22:41:18.138Z,176
2016-04-21T22:41:31.217Z,176
2016-04-21T22:41:43.998Z,176
2016-04-21T22:41:56.888Z,176
2016-04-21T22:42:10.045Z,176
2016-04-21T22:42:22.875Z,176
2016-04-21T22:42:35.812Z,176
2016-04-21T22:42:48.812Z,176
2016-04-21T22:43:01.656Z,176
2016-04-21T22:43:14.643Z,176
2016-04-21T22:43:27.643Z,176
2016-04-21T22:43:40.597Z,176
2016-04-21T22:43:53.565Z,176
2016-04-21T22:44:06.534Z,176
2016-04-21T22:44:19.959Z,176
2016-04-21T22:44:33.646Z,176
2016-04-21T22:44:46.662Z,176
2016-04-21T22:44:59.615Z,176
2016-04-21T22:45:13.834Z,176
2016-04-21T22:45:26.867Z,176
2016-04-21T22:45:39.633Z,176
2016-04-21T22:45:53.461Z,176
2016-04-21T22:46:06.414Z,176
2016-04-21T22:46:19.698Z,176
2016-04-21T22:46:32.573Z,176
2016-04-21T22:46:45.589Z,176
2016-04-21T22:46:58.370Z,176
2016-04-21T22:47:11.183Z,176
2016-04-21T22:47:24.201Z,176
2016-04-21T22:47:37.029Z,176
2016-04-21T22:47:49.842Z,156
2016-04-21T22:48:02.826Z,176
2016-04-21T22:48:15.782Z,156
2016-04-21T22:48:28.657Z,176
2016-04-21T22:48:41.657Z,176
2016-04-21T22:48:54.423Z,156
2016-04-21T22:49:07.579Z,192
2016-04-21T22:49:20.644Z,176
2016-04-21T22:49:33.409Z,192
2016-04-21T22:49:47.050Z,192
2016-04-21T22:50:00.191Z,176
2016-04-21T22:50:13.050Z,192
2016-04-21T22:50:26.928Z,176
2016-04-21T22:50:42.787Z,176
2016-04-21T22:50:55.584Z,176
2016-04-21T22:51:08.366Z,176
2016-04-21T22:51:21.305Z,176
2016-04-21T22:51:34.258Z,176
2016-04-21T22:51:54.414Z,176
2016-04-21T22:52:25.996Z,176
2016-04-21T22:52:38.839Z,176
2016-04-21T22:52:51.871Z,176
2016-04-21T22:53:04.652Z,176
2016-04-21T22:53:17.420Z,176
2016-04-21T22:53:33.155Z,176
2016-04-21T23:05:47.796Z,176
2016-04-21T23:06:00.640Z,176
2016-04-21T23:06:13.515Z,176
2016-04-21T23:06:26.299Z,176
2016-04-21T23:07:35.176Z,192
2016-04-21T23:07:47.989Z,176
2016-04-21T23:08:01.426Z,176
2016-04-21T23:08:14.395Z,156
2016-04-21T23:08:27.335Z,176
2016-04-21T23:08:40.101Z,176
2016-04-21T23:08:57.273Z,176
2016-04-21T23:09:13.492Z,176
2016-04-21T23:09:26.417Z,176
2016-04-21T23:09:39.401Z,176
2016-04-21T23:09:52.838Z,176
2016-04-21T23:10:05.760Z,176
2016-04-21T23:10:18.872Z,176
2016-04-21T23:10:31.856Z,176
2016-04-21T23:10:44.715Z,176
2016-04-21T23:10:57.747Z,176
2016-04-21T23:11:10.637Z,172
2016-04-21T23:11:23.406Z,192
2016-04-21T23:11:36.453Z,176
2016-04-21T23:11:49.437Z,172
2016-04-21T23:12:02.203Z,176
2016-04-21T23:12:15.218Z,176
2016-04-21T23:12:28.253Z,192
2016-04-21T23:12:41.159Z,192
2016-04-21T23:12:54.018Z,192
2016-04-21T23:13:06.971Z,192
2016-04-21T23:13:19.942Z,192
2016-04-21T23:13:32.911Z,192
2016-04-21T23:13:45.770Z,176
2016-04-21T23:13:58.770Z,176
2016-04-21T23:14:11.567Z,192
2016-04-21T23:14:24.398Z,192
2016-04-21T23:14:37.414Z,192
2016-04-21T23:14:50.680Z,192
2016-04-21T23:15:04.430Z,192
2016-04-21T23:15:17.434Z,192
2016-04-21T23:15:30.262Z,176
2016-04-21T23:15:43.262Z,192
2016-04-21T23:15:57.309Z,192
2016-04-21T23:16:10.121Z,176
2016-04-21T23:16:23.169Z,176
2016-04-21T23:16:36.091Z,176
2016-04-21T23:16:51.966Z,176
2016-04-21T23:17:06.810Z,176
2016-04-21T23:17:25.766Z,176
2016-04-21T23:17:44.672Z,176
2016-04-21T23:17:59.547Z,176
2016-04-21T23:18:14.797Z,176
2016-04-21T23:18:29.175Z,176
2016-04-21T23:18:42.159Z,176
2016-04-21T23:18:54.878Z,176
2016-04-21T23:19:07.816Z,176
2016-04-21T23:19:20.772Z,176
2016-04-21T23:19:33.569Z,176
2016-04-21T23:19:46.397Z,176
2016-04-21T23:19:59.428Z,176
2016-04-21T23:20:12.225Z,176
2016-04-21T23:20:24.993Z,176
2016-04-21T23:20:38.009Z,176
2016-04-21T23:20:50.837Z,176
2016-04-21T23:21:03.634Z,176
2016-04-21T23:21:20.543Z,176
2016-04-21T23:21:34.590Z,176
2016-04-21T23:21:48.356Z,176
2016-04-21T23:22:02.543Z,176
2016-04-21T23:22:16.561Z,176
2016-04-21T23:22:30.702Z,176
2016-04-21T23:22:44.873Z,176
2016-04-21T23:22:58.811Z,176
2016-04-21T23:23:12.858Z,176
2016-04-21T23:23:26.986Z,176
2016-04-21T23:23:39.955Z,176
2016-04-21T23:23:52.970Z,176
2016-04-21T23:24:07.220Z,176
2016-04-21T23:24:20.050Z,176
2016-04-21T23:24:32.972Z,176
2016-04-21T23:24:45.957Z,176
2016-04-21T23:36:50.520Z,176
2016-04-21T23:37:03.254Z,176
2016-04-21T23:37:16.160Z,176
2016-04-21T23:37:29.132Z,176
2016-04-21T23:38:37.963Z,176
2016-04-21T23:38:50.901Z,176
2016-04-21T23:39:04.541Z,176
2016-04-21T23:39:18.263Z,176
2016-04-21T23:39:31.701Z,176
2016-04-21T23:39:45.419Z,160
2016-04-21T23:39:58.373Z,160
2016-04-21T23:40:11.373Z,160
2016-04-21T23:40:24.140Z,160
2016-04-21T23:40:37.046Z,160
2016-04-21T23:40:50.031Z,160
2016-04-21T23:41:02.781Z,176
2016-04-21T23:41:15.593Z,176
2016-04-21T23:41:28.612Z,176
2016-04-21T23:41:41.393Z,176
2016-04-21T23:41:54.159Z,160
2016-04-21T23:42:06.956Z,160
2016-04-21T23:42:19.974Z,160
2016-04-21T23:42:32.927Z,160
2016-04-21T23:42:45.646Z,160
2016-04-21T23:42:58.631Z,160
2016-04-21T23:43:11.584Z,15
2016-04-21T23:43:24.304Z,15
2016-04-21T23:43:37.273Z,15
2016-04-21T23:43:50.367Z,15
2016-04-21T23:44:03.086Z,0
2016-04-21T23:44:15.883Z,0
2016-04-21T23:44:28.870Z,0
2016-04-21T23:44:41.620Z,0
2016-04-21T23:44:54.526Z,0
2016-04-21T23:45:07.261Z,0
2016-04-21T23:45:20.076Z,0
2016-04-21T23:45:32.998Z,0
2016-04-21T23:45:45.717Z,0
2016-04-21T23:45:59.435Z,0
2016-04-21T23:46:12.404Z,0
2016-04-21T23:46:25.126Z,0
2016-04-21T23:46:37.892Z,0
2016-04-21T23:46:50.845Z,0
2016-04-21T23:47:03.626Z,0
2016-04-21T23:47:16.360Z,0
2016-04-21T23:47:29.284Z,0
2016-04-21T23:47:42.019Z,0
2016-04-21T23:47:54.909Z,0
2016-04-21T23:48:07.800Z,0
2016-04-21T23:48:20.506Z,0
2016-04-21T23:48:33.365Z,0
2016-04-21T23:48:46.303Z,0
2016-04-21T23:48:58.990Z,0
2016-04-21T23:49:11.881Z,0
2016-04-21T23:49:24.821Z,0
2016-04-21T23:49:37.587Z,0
2016-04-21T23:49:50.337Z,0
2016-04-21T23:50:03.321Z,0
2016-04-21T23:50:16.071Z,0
2016-04-21T23:50:29.028Z,0
2016-04-21T23:50:41.715Z,0
2016-04-21T23:50:54.559Z,0
2016-04-21T23:51:07.481Z,0
2016-04-21T23:51:20.248Z,0
2016-04-21T23:51:33.014Z,0
2016-04-21T23:51:45.967Z,0
2016-04-21T23:51:58.701Z,0
2016-04-21T23:53:11.505Z,0
2016-04-21T23:53:25.804Z,0
2016-04-21T23:53:38.679Z,0
2016-04-21T23:53:51.748Z,0
2016-04-21T23:54:04.964Z,0
2016-04-21T23:54:18.045Z,0
2016-04-21T23:54:31.030Z,0
2016-04-21T23:54:43.827Z,0
2016-04-21T23:54:56.858Z,0
2016-04-21T23:55:09.811Z,0
2016-04-21T23:55:22.642Z,0
2016-04-21T23:55:37.212Z,0
2016-04-21T23:55:50.166Z,0
2016-04-21T23:56:03.072Z,0
